Time;durP1;ratioP1;P1;durP2;ratioP2;P2;SDS_P1;SDS_P2;PMS_P1;PMS_P2;Temp;Humidity;BMP_temperature;BMP_pressure;BME280_temperature;BME280_humidity;BME280_pressure;Samples;Min_cycle;Max_cycle;Signal;HPM_P1;HPM_P2
2022/02/13 00:00:13;;;;;;;45.83;20.02;;;;;;;-1.79;77.90;101595.65;1695874;84;26456;-69
2022/02/13 00:02:41;;;;;;;41.28;18.35;;;;;;;-1.80;77.94;101596.59;1713355;82;21054;-69
2022/02/13 00:05:08;;;;;;;50.10;21.27;;;;;;;-1.82;77.98;101591.41;1724983;81;21096;-69
2022/02/13 00:10:01;;;;;;;49.60;21.02;;;;;;;-1.81;78.02;101589.64;1691808;81;89359;-70
2022/02/13 00:12:27;;;;;;;53.30;22.22;;;;;;;-1.82;78.03;101579.64;1698423;84;21513;-69
2022/02/13 00:14:56;;;;;;;47.48;19.32;;;;;;;-1.83;78.05;101574.01;1669487;86;21032;-69
2022/02/13 00:17:23;;;;;;;47.78;20.00;;;;;;;-1.84;78.08;101577.56;1679152;84;21097;-70
2022/02/13 00:19:50;;;;;;;52.25;21.05;;;;;;;-1.84;78.09;101572.78;1663610;86;21175;-69
2022/02/13 00:22:17;;;;;;;45.33;19.45;;;;;;;-1.84;78.11;101570.17;1663512;86;21069;-69
2022/02/13 00:24:44;;;;;;;41.10;18.40;;;;;;;-1.86;78.15;101565.44;1663254;86;21002;-69
2022/02/13 00:27:12;;;;;;;50.85;19.25;;;;;;;-1.88;78.16;101562.05;1663471;86;21037;-69
2022/02/13 00:29:38;;;;;;;47.75;19.67;;;;;;;-1.89;78.18;101557.73;1663204;85;21018;-69
2022/02/13 00:32:05;;;;;;;71.12;27.35;;;;;;;-1.90;78.19;101556.88;1663532;86;21142;-68
2022/02/13 00:34:31;;;;;;;57.93;22.48;;;;;;;-1.90;78.25;101554.26;1663437;86;21006;-68
2022/02/13 00:36:58;;;;;;;52.85;20.60;;;;;;;-1.90;78.27;101553.44;1663549;86;21009;-69
2022/02/13 00:39:24;;;;;;;75.00;31.10;;;;;;;-1.91;78.29;101546.50;1663426;86;21074;-69
2022/02/13 00:41:50;;;;;;;72.50;26.45;;;;;;;-1.90;78.31;101554.26;1689864;84;21052;-68
2022/02/13 00:44:16;;;;;;;59.77;26.85;;;;;;;-1.93;78.32;101543.94;1691279;84;21154;-68
2022/02/13 00:46:42;;;;;;;60.55;25.72;;;;;;;-1.94;78.33;101546.17;1691429;84;21053;-68
2022/02/13 00:49:08;;;;;;;47.88;21.90;;;;;;;-1.95;78.38;101535.77;1691458;84;26263;-68
2022/02/13 00:51:34;;;;;;;47.35;20.12;;;;;;;-1.97;78.39;101537.12;1691446;83;20986;-69
2022/02/13 00:54:01;;;;;;;54.38;19.52;;;;;;;-2.01;78.42;101532.97;1691266;84;21378;-68
2022/02/13 00:56:27;;;;;;;45.35;20.12;;;;;;;-2.02;78.42;101526.03;1691363;84;21741;-69
2022/02/13 00:58:53;;;;;;;46.45;18.55;;;;;;;-2.01;78.46;101524.64;1691246;84;21025;-69
2022/02/13 01:01:19;;;;;;;51.73;19.65;;;;;;;-2.02;78.47;101522.11;1691564;84;21002;-68
2022/02/13 01:03:45;;;;;;;55.28;25.27;;;;;;;-2.01;78.50;101517.28;1691387;84;21069;-69
2022/02/13 01:06:12;;;;;;;57.08;22.82;;;;;;;-2.01;78.52;101514.67;1691332;84;21069;-68
2022/02/13 01:08:38;;;;;;;53.55;23.80;;;;;;;-2.01;78.55;101504.22;1691187;83;21797;-69
2022/02/13 01:11:04;;;;;;;46.33;19.37;;;;;;;-2.01;78.55;101501.61;1684638;84;21504;-68
2022/02/13 01:13:30;;;;;;;51.20;22.58;;;;;;;-2.02;78.59;101505.13;1690671;84;21460;-68
2022/02/13 01:15:57;;;;;;;47.13;18.98;;;;;;;-2.01;78.61;101501.61;1688753;83;20971;-69
2022/02/13 01:18:23;;;;;;;41.48;20.02;;;;;;;-2.03;78.65;101499.04;1677427;85;21027;-68
2022/02/13 01:20:49;;;;;;;50.15;20.23;;;;;;;-2.02;78.68;101498.59;1668479;86;21886;-68
2022/02/13 01:23:15;;;;;;;57.20;22.02;;;;;;;-2.03;78.69;101492.96;1702534;84;26948;-68
2022/02/13 01:25:41;;;;;;;50.65;21.30;;;;;;;-2.02;78.71;101497.28;1702613;82;25863;-68
2022/02/13 01:28:07;;;;;;;44.75;19.12;;;;;;;-2.02;78.74;101486.83;1724725;82;21034;-68
2022/02/13 01:30:33;;;;;;;43.63;20.40;;;;;;;-2.02;78.79;101489.45;1701040;84;21018;-69
2022/02/13 01:33:00;;;;;;;50.05;20.95;;;;;;;-2.03;78.81;101481.20;1638621;87;21856;-69
2022/02/13 01:35:27;;;;;;;52.40;21.75;;;;;;;-2.04;78.81;101488.64;1702246;84;38136;-68
2022/02/13 01:37:53;;;;;;;47.33;20.12;;;;;;;-2.05;78.83;101479.12;1703726;84;20987;-68
2022/02/13 01:40:19;;;;;;;45.92;19.40;;;;;;;-2.06;78.87;101474.80;1704025;84;20984;-68
2022/02/13 01:42:45;;;;;;;50.50;20.02;;;;;;;-2.06;78.89;101475.66;1703913;84;21028;-69
2022/02/13 01:45:11;;;;;;;42.90;18.98;;;;;;;-2.06;78.93;101464.34;1703898;84;20992;-68
2022/02/13 01:47:38;;;;;;;45.88;19.23;;;;;;;-2.08;78.94;101467.04;1703955;84;20966;-69
2022/02/13 01:50:07;;;;;;;51.42;21.87;;;;;;;-2.08;78.97;101458.34;1704042;84;21043;-68
2022/02/13 01:52:33;;;;;;;35.40;15.58;;;;;;;-2.08;78.99;101458.34;1704151;83;21008;-68
2022/02/13 01:54:59;;;;;;;47.65;19.62;;;;;;;-2.09;79.02;101454.03;1703936;84;20944;-68
2022/02/13 01:57:26;;;;;;;47.58;19.82;;;;;;;-2.09;79.03;101455.33;1703710;84;21171;-68
2022/02/13 01:59:52;;;;;;;45.70;19.35;;;;;;;-2.09;79.05;101450.11;1703805;83;20992;-68
2022/02/13 02:02:19;;;;;;;43.60;19.95;;;;;;;-2.09;79.08;101443.58;1704001;84;21015;-68
2022/02/13 02:04:45;;;;;;;47.00;19.95;;;;;;;-2.07;79.10;101449.57;1703947;84;21028;-68
2022/02/13 02:07:11;;;;;;;40.63;18.40;;;;;;;-2.06;79.11;101440.83;1719790;82;21010;-69
2022/02/13 02:09:37;;;;;;;46.35;20.05;;;;;;;-2.05;79.15;101439.92;1731795;81;21153;-69
2022/02/13 02:12:04;;;;;;;43.87;18.50;;;;;;;-2.05;79.15;101438.62;1727401;83;21078;-69
2022/02/13 02:14:31;;;;;;;42.75;20.02;;;;;;;-2.03;79.18;101438.08;1727451;83;21038;-69
2022/02/13 02:16:57;;;;;;;47.78;20.77;;;;;;;-2.02;79.20;101439.80;1727316;82;21062;-69
2022/02/13 02:19:23;;;;;;;44.33;18.37;;;;;;;-2.00;79.23;101439.25;1727628;83;21467;-69
2022/02/13 02:21:49;;;;;;;50.98;21.57;;;;;;;-1.99;79.23;101431.81;1727625;83;21501;-69
2022/02/13 02:24:16;;;;;;;49.73;21.27;;;;;;;-2.00;79.25;101424.88;1727665;83;21475;-69
2022/02/13 02:26:43;;;;;;;42.83;19.62;;;;;;;-2.02;79.28;101418.88;1727649;83;21002;-69
2022/02/13 02:29:09;;;;;;;42.13;19.85;;;;;;;-2.01;79.31;101419.29;1727183;83;21026;-69
2022/02/13 02:31:35;;;;;;;49.98;21.73;;;;;;;-2.00;79.33;101422.27;1727912;83;21073;-69
2022/02/13 02:34:02;;;;;;;45.80;21.75;;;;;;;-2.01;79.33;101414.06;1727461;83;21149;-69
2022/02/13 02:36:28;;;;;;;45.00;20.10;;;;;;;-2.04;79.35;101411.55;1700510;83;21012;-69
2022/02/13 02:38:53;;;;;;;46.45;19.80;;;;;;;-2.05;79.38;101404.65;1713389;83;26458;-69
2022/02/13 02:41:20;;;;;;;38.83;18.67;;;;;;;-2.05;79.38;101403.34;1701032;83;21471;-70
2022/02/13 02:43:46;;;;;;;43.13;19.50;;;;;;;-2.06;79.40;101404.25;1697653;83;21078;-69
2022/02/13 02:46:12;;;;;;;41.10;20.12;;;;;;;-2.07;79.41;101393.39;1697481;83;21140;-69
2022/02/13 02:48:39;;;;;;;51.23;22.48;;;;;;;-2.08;79.45;101392.57;1697739;84;21502;-69
2022/02/13 02:51:05;;;;;;;44.60;20.82;;;;;;;-2.08;79.45;101386.49;1697464;84;21518;-68
2022/02/13 02:53:33;;;;;;;45.28;19.87;;;;;;;-2.08;79.45;101382.58;1697672;84;21495;-68
2022/02/13 02:55:59;;;;;;;43.25;18.75;;;;;;;-2.06;79.47;101380.73;1697761;84;21054;-68
2022/02/13 02:58:25;;;;;;;45.50;18.90;;;;;;;-2.06;79.49;101382.03;1697437;84;21125;-68
2022/02/13 03:00:51;;;;;;;41.45;18.75;;;;;;;-2.07;79.50;101384.25;1697613;84;21010;-68
2022/02/13 03:03:20;;;;;;;40.48;17.77;;;;;;;-2.08;79.52;101377.34;1697737;84;21014;-68
2022/02/13 03:05:50;;;;;;;38.57;18.87;;;;;;;-2.09;79.54;101378.25;1697805;84;21027;-68
2022/02/13 03:08:16;;;;;;;36.98;17.85;;;;;;;-2.11;79.55;101374.88;1698086;84;21158;-68
2022/02/13 03:10:43;;;;;;;43.50;18.15;;;;;;;-2.13;79.55;101355.78;1701143;84;21197;-69
2022/02/13 03:13:10;;;;;;;48.50;20.68;;;;;;;-2.13;79.58;101355.78;1703690;84;21083;-68
2022/02/13 03:15:37;;;;;;;40.20;17.55;;;;;;;-2.12;79.58;101352.26;1703996;84;21083;-68
2022/02/13 03:18:02;;;;;;;40.73;19.40;;;;;;;-2.12;79.61;101350.95;1703904;84;20976;-68
2022/02/13 03:20:28;;;;;;;40.50;18.55;;;;;;;-2.10;79.62;101353.03;1703842;84;21507;-69
2022/02/13 03:22:54;;;;;;;35.10;18.10;;;;;;;-2.11;79.62;101350.87;1704050;84;21508;-69
2022/02/13 03:25:21;;;;;;;32.93;16.30;;;;;;;-2.10;79.64;101353.03;1703625;84;21536;-69
2022/02/13 03:27:46;;;;;;;38.65;16.60;;;;;;;-2.11;79.66;101344.34;1703900;84;26373;-69
2022/02/13 03:30:12;;;;;;;38.17;17.42;;;;;;;-2.10;79.66;101343.89;1703796;84;21035;-69
2022/02/13 03:32:38;;;;;;;36.23;17.17;;;;;;;-2.09;79.68;101343.83;1704067;84;21043;-69
2022/02/13 03:35:05;;;;;;;38.80;16.85;;;;;;;-2.07;79.70;101347.67;1703862;84;21017;-69
2022/02/13 03:37:31;;;;;;;35.05;14.53;;;;;;;-2.04;79.70;101344.91;1703478;84;21633;-68
2022/02/13 03:39:57;;;;;;;36.20;15.85;;;;;;;-2.03;79.71;101334.41;1703448;84;21516;-69
2022/02/13 03:42:23;;;;;;;37.78;15.28;;;;;;;-2.01;79.72;101333.05;1703845;84;21500;-69
2022/02/13 03:44:50;;;;;;;29.75;15.00;;;;;;;-1.99;79.73;101331.66;1721484;82;21055;-69
2022/02/13 03:47:17;;;;;;;32.53;15.63;;;;;;;-1.99;79.72;101324.67;1700814;84;21266;-69
2022/02/13 03:49:43;;;;;;;34.05;15.18;;;;;;;-1.98;79.74;101328.14;1700951;83;20999;-69
2022/02/13 03:52:10;;;;;;;31.35;14.93;;;;;;;-1.99;79.75;101324.67;1700964;84;21031;-68
2022/02/13 03:54:36;;;;;;;31.42;14.55;;;;;;;-2.00;79.76;101315.13;1701078;84;21031;-69
2022/02/13 03:57:02;;;;;;;36.60;15.08;;;;;;;-1.97;79.75;101320.70;1700995;84;21035;-69
2022/02/13 03:59:28;;;;;;;35.45;15.60;;;;;;;-1.98;79.77;101310.70;1700993;84;22709;-69
2022/02/13 04:01:54;;;;;;;29.70;14.53;;;;;;;-1.98;79.79;101315.92;1701093;84;27601;-69
2022/02/13 04:04:20;;;;;;;38.63;15.83;;;;;;;-1.98;79.79;101308.08;1700941;83;21030;-69
2022/02/13 04:06:46;;;;;;;32.40;15.45;;;;;;;-1.99;79.79;101307.69;1702163;84;21067;-68
2022/02/13 04:09:12;;;;;;;35.85;15.40;;;;;;;-2.02;79.79;101310.44;1705259;82;21043;-69
2022/02/13 04:11:38;;;;;;;32.83;15.55;;;;;;;-2.04;79.83;101308.33;1703546;82;21138;-69
2022/02/13 04:14:04;;;;;;;28.45;13.93;;;;;;;-2.06;79.81;101299.73;1704047;84;21629;-69
2022/02/13 04:16:30;;;;;;;33.75;16.32;;;;;;;-2.05;79.82;101297.06;1704157;84;21047;-69
2022/02/13 04:18:56;;;;;;;29.48;14.15;;;;;;;-2.02;79.82;101297.38;1704112;83;20905;-69
2022/02/13 04:21:22;;;;;;;30.80;15.63;;;;;;;-2.02;79.82;101296.92;1703951;84;21031;-68
2022/02/13 04:23:48;;;;;;;25.70;13.80;;;;;;;-2.01;79.82;101299.08;1704181;84;21996;-68
2022/02/13 04:26:14;;;;;;;32.93;14.55;;;;;;;-2.01;79.82;101288.63;1703898;84;21023;-68
2022/02/13 04:28:40;;;;;;;26.37;13.40;;;;;;;-2.01;79.82;101287.32;1704087;84;21063;-68
2022/02/13 04:31:06;;;;;;;26.15;13.48;;;;;;;-2.04;79.85;101283.05;1703994;82;21029;-69
2022/02/13 04:33:32;;;;;;;31.35;14.95;;;;;;;-2.04;79.83;101282.20;1703758;84;20996;-68
2022/02/13 04:35:58;;;;;;;27.40;13.32;;;;;;;-2.04;79.85;101274.36;1703952;84;21222;-69
2022/02/13 04:38:24;;;;;;;27.22;13.45;;;;;;;-2.06;79.85;101277.52;1703915;84;21007;-68
2022/02/13 04:40:50;;;;;;;22.75;12.07;;;;;;;-2.04;79.86;101274.36;1704035;84;25806;-68
2022/02/13 04:43:16;;;;;;;24.75;12.23;;;;;;;-2.02;79.86;101273.86;1703810;84;21064;-69
2022/02/13 04:45:42;;;;;;;26.10;12.82;;;;;;;-2.02;79.85;101264.70;1704205;84;21004;-69
2022/02/13 04:48:08;;;;;;;28.40;15.38;;;;;;;-2.00;79.87;101270.70;1703153;84;21233;-69
2022/02/13 04:50:34;;;;;;;26.70;13.65;;;;;;;-1.99;79.87;101271.09;1703653;83;21013;-69
2022/02/13 04:53:00;;;;;;;28.83;12.65;;;;;;;-2.00;79.88;101264.17;1685935;84;21067;-69
2022/02/13 04:55:27;;;;;;;33.95;15.78;;;;;;;-2.01;79.88;101262.49;1675473;85;21047;-69
2022/02/13 04:57:53;;;;;;;30.92;15.20;;;;;;;-2.03;79.87;101261.70;1675616;85;21513;-70
2022/02/13 05:00:19;;;;;;;34.78;16.05;;;;;;;-2.07;79.89;101255.77;1675624;85;21857;-69
2022/02/13 05:02:45;;;;;;;38.60;16.45;;;;;;;-2.08;79.90;101250.17;1675637;85;21068;-69
2022/02/13 05:05:11;;;;;;;34.80;17.57;;;;;;;-2.08;79.89;101250.17;1675354;85;21346;-69
2022/02/13 05:07:38;;;;;;;47.85;21.82;;;;;;;-2.07;79.90;101245.77;1677378;84;21059;-69
2022/02/13 05:10:05;;;;;;;27.70;14.20;;;;;;;-2.06;79.90;101244.86;1702039;84;21047;-69
2022/02/13 05:12:31;;;;;;;34.98;14.87;;;;;;;-2.06;79.91;101226.11;1678687;84;21886;-69
2022/02/13 05:14:57;;;;;;;25.82;12.20;;;;;;;-2.06;79.90;101224.80;1675605;85;21536;-69
2022/02/13 05:17:23;;;;;;;31.60;15.00;;;;;;;-2.07;79.90;101228.33;1675293;85;21215;-69
2022/02/13 05:19:50;;;;;;;36.08;16.75;;;;;;;-2.05;79.91;101229.13;1675617;85;21096;-69
2022/02/13 05:22:17;;;;;;;28.17;14.30;;;;;;;-2.03;79.92;101227.27;1684782;84;21083;-68
2022/02/13 05:24:45;;;;;;;33.20;16.10;;;;;;;-2.00;79.90;101231.50;1703851;84;21123;-69
2022/02/13 05:27:11;;;;;;;38.80;15.18;;;;;;;-1.95;79.92;101228.23;1703815;84;21043;-68
2022/02/13 05:29:37;;;;;;;28.25;15.90;;;;;;;-1.93;79.92;101225.08;1704003;84;25776;-69
2022/02/13 05:32:05;;;;;;;30.12;13.80;;;;;;;-1.91;79.94;101223.72;1703892;84;21020;-68
2022/02/13 05:34:31;;;;;;;30.97;14.10;;;;;;;-1.90;79.94;101224.94;1682584;84;21556;-68
2022/02/13 05:36:57;;;;;;;39.70;16.42;;;;;;;-1.89;79.93;101224.48;1696705;84;21752;-68
2022/02/13 05:39:23;;;;;;;29.30;15.18;;;;;;;-1.88;79.92;101221.81;1703556;84;21004;-69
2022/02/13 05:41:49;;;;;;;40.88;16.00;;;;;;;-1.84;79.93;101219.90;1687174;84;21099;-68
2022/02/13 05:44:15;;;;;;;34.27;16.10;;;;;;;-1.84;79.93;101222.06;1675476;85;21091;-68
2022/02/13 05:46:42;;;;;;;29.92;15.10;;;;;;;-1.83;79.93;101231.57;1682047;84;21016;-69
2022/02/13 05:49:08;;;;;;;41.10;16.17;;;;;;;-1.84;79.93;101229.90;1701293;84;21039;-69
2022/02/13 05:51:35;;;;;;;35.92;14.25;;;;;;;-1.83;79.94;101223.73;1679065;84;21063;-69
2022/02/13 05:54:01;;;;;;;31.10;14.78;;;;;;;-1.82;79.93;101225.89;1704199;84;21586;-69
2022/02/13 05:56:27;;;;;;;36.70;15.93;;;;;;;-1.87;79.92;101222.20;1703346;84;21516;-69
2022/02/13 05:58:54;;;;;;;41.48;16.93;;;;;;;-1.89;79.95;101216.64;1704211;82;21519;-69
2022/02/13 06:01:20;;;;;;;31.85;15.28;;;;;;;-1.90;79.96;101214.48;1703848;84;22098;-69
2022/02/13 06:03:46;;;;;;;32.45;14.50;;;;;;;-1.90;79.95;101214.48;1703855;84;21050;-69
2022/02/13 06:06:12;;;;;;;39.38;16.07;;;;;;;-1.91;79.96;101209.34;1703920;84;21035;-69
2022/02/13 06:08:39;;;;;;;32.20;15.15;;;;;;;-1.91;79.96;101211.50;1675988;84;21033;-69
2022/02/13 06:11:05;;;;;;;41.77;18.98;;;;;;;-1.91;79.96;101212.80;1683155;84;21520;-69
2022/02/13 06:13:31;;;;;;;40.38;19.57;;;;;;;-1.89;79.93;101210.95;1703931;84;21945;-69
2022/02/13 06:15:58;;;;;;;36.95;15.20;;;;;;;-1.88;79.94;101212.66;1703941;84;21555;-69
2022/02/13 06:18:25;;;;;;;37.15;15.70;;;;;;;-1.87;79.92;101218.28;1703658;84;21027;-69
2022/02/13 06:20:51;;;;;;;42.17;17.65;;;;;;;-1.87;79.95;101214.36;1704008;84;21123;-69
2022/02/13 06:23:17;;;;;;;39.15;17.52;;;;;;;-1.86;79.94;101213.42;1683213;84;21032;-69
2022/02/13 06:25:43;;;;;;;39.75;16.23;;;;;;;-1.83;79.93;101207.23;1683560;84;21195;-69
2022/02/13 06:28:09;;;;;;;36.70;15.88;;;;;;;-1.82;79.92;101199.30;1703920;84;21035;-69
2022/02/13 06:30:35;;;;;;;37.03;16.65;;;;;;;-1.82;79.95;101203.22;1703828;84;21031;-69
2022/02/13 06:33:03;;;;;;;29.07;14.18;;;;;;;-1.82;79.91;101199.30;1703970;84;21063;-69
2022/02/13 06:35:30;;;;;;;30.65;14.75;;;;;;;-1.79;79.92;101199.15;1702602;84;21086;-69
2022/02/13 06:37:57;;;;;;;42.85;18.40;;;;;;;-1.75;79.92;101190.25;1697527;84;21121;-69
2022/02/13 06:40:23;;;;;;;83.60;32.08;;;;;;;-1.72;79.92;101197.09;1687286;84;21563;-69
2022/02/13 06:42:49;;;;;;;77.00;27.30;;;;;;;-1.71;79.91;101195.72;1708839;82;21523;-69
2022/02/13 06:45:15;;;;;;;46.33;17.32;;;;;;;-1.68;79.93;101189.48;1703926;83;21059;-69
2022/02/13 06:47:41;;;;;;;45.63;19.55;;;;;;;-1.68;79.94;101189.03;1717362;82;21658;-69
2022/02/13 06:50:09;;;;;;;40.00;19.20;;;;;;;-1.63;79.92;101190.98;1711192;82;21186;-69
2022/02/13 06:52:35;;;;;;;35.75;15.98;;;;;;;-1.33;79.88;101181.24;1679171;84;21572;-69
2022/02/13 06:55:01;;;;;;;36.00;14.87;;;;;;;-1.06;79.73;101180.75;1693279;84;21540;-69
2022/02/13 06:57:27;;;;;;;29.67;14.68;;;;;;;-1.02;79.62;101189.27;1691598;84;21579;-69
2022/02/13 06:59:53;;;;;;;37.17;15.60;;;;;;;-1.09;79.60;101190.52;1679749;84;21587;-69
2022/02/13 07:02:19;;;;;;;30.65;14.90;;;;;;;-1.11;79.64;101193.20;1647755;86;21558;-69
2022/02/13 07:04:47;;;;;;;28.05;13.28;;;;;;;-0.97;79.62;101191.20;1670076;86;21038;-69
2022/02/13 07:07:13;;;;;;;36.88;16.42;;;;;;;-0.79;79.58;101185.49;1670122;86;21066;-69
2022/02/13 07:09:39;;;;;;;45.55;17.98;;;;;;;-0.61;79.59;101185.40;1669810;85;21027;-69
2022/02/13 07:12:12;;;;;;;37.75;15.90;;;;;;;-0.42;79.61;101186.56;1664058;85;21070;-69
2022/02/13 07:14:41;;;;;;;28.17;13.20;;;;;;;-0.26;79.61;101182.69;1659526;86;21145;-69
2022/02/13 07:17:07;;;;;;;44.15;19.75;;;;;;;-0.15;79.64;101180.34;1693205;83;21169;-70
2022/02/13 07:19:33;;;;;;;35.63;14.70;;;;;;;-0.14;79.66;101171.06;1716993;83;21051;-69
2022/02/13 07:21:59;;;;;;;30.55;13.80;;;;;;;-0.16;79.71;101178.64;1697861;83;21005;-69
2022/02/13 07:24:25;;;;;;;32.53;14.43;;;;;;;-0.18;79.69;101176.12;1688609;85;20972;-69
2022/02/13 07:26:51;;;;;;;36.77;16.93;;;;;;;-0.09;79.63;101178.69;1688562;83;21150;-69
2022/02/13 07:29:17;;;;;;;31.02;16.60;;;;;;;0.01;79.58;101175.94;1688889;85;20985;-69
2022/02/13 07:31:43;;;;;;;39.63;15.50;;;;;;;0.07;79.56;101169.05;1688517;83;21064;-70
2022/02/13 07:34:09;;;;;;;29.87;13.93;;;;;;;0.17;79.52;101168.94;1688822;85;21100;-69
2022/02/13 07:36:36;;;;;;;31.77;15.93;;;;;;;0.31;79.42;101166.40;1688891;85;21008;-69
2022/02/13 07:39:03;;;;;;;42.60;19.75;;;;;;;0.41;79.39;101166.26;1679118;85;21865;-69
2022/02/13 07:41:29;;;;;;;32.75;15.65;;;;;;;0.48;79.37;101161.04;1671823;85;21012;-69
2022/02/13 07:43:55;;;;;;;31.93;15.08;;;;;;;0.54;79.36;101147.17;1686747;85;20997;-69
2022/02/13 07:46:21;;;;;;;31.23;15.50;;;;;;;0.58;79.31;101144.30;1688886;84;21048;-69
2022/02/13 07:48:47;;;;;;;36.85;17.42;;;;;;;0.64;79.29;101145.25;1674982;85;21040;-69
2022/02/13 07:51:13;;;;;;;34.15;19.10;;;;;;;0.73;79.24;101146.51;1681192;85;21057;-69
2022/02/13 07:53:40;;;;;;;42.20;16.77;;;;;;;0.75;79.21;101139.38;1716089;83;20975;-70
2022/02/13 07:56:06;;;;;;;48.92;22.10;;;;;;;0.81;79.15;101139.04;1688663;85;21028;-69
2022/02/13 07:58:32;;;;;;;29.55;13.93;;;;;;;0.82;79.10;101134.14;1709263;83;21016;-69
2022/02/13 08:01:04;;;;;;;34.53;18.25;;;;;;;0.84;79.06;101138.39;1726057;83;21024;-69
2022/02/13 08:03:30;;;;;;;32.08;15.98;;;;;;;0.87;78.99;101138.67;1726288;83;21146;-69
2022/02/13 08:05:57;;;;;;;48.25;21.52;;;;;;;0.79;78.93;101133.02;1722282;83;21480;-69
2022/02/13 08:08:23;;;;;;;76.33;27.25;;;;;;;0.76;78.84;101138.45;1690382;83;21028;-69
2022/02/13 08:10:49;;;;;;;54.05;22.40;;;;;;;0.75;78.80;101135.44;1717041;83;21065;-69
2022/02/13 08:13:15;;;;;;;47.75;19.45;;;;;;;0.72;78.70;101133.00;1703951;84;21042;-69
2022/02/13 08:15:43;;;;;;;31.68;15.72;;;;;;;0.73;78.65;101133.38;1741158;82;21054;-69
2022/02/13 08:18:12;;;;;;;38.30;17.35;;;;;;;0.68;78.58;101136.73;1705607;84;21029;-69
2022/02/13 08:20:38;;;;;;;29.57;15.35;;;;;;;0.62;78.51;101130.53;1741165;82;21000;-69
2022/02/13 08:23:04;;;;;;;37.13;14.68;;;;;;;0.57;78.43;101118.98;1739542;82;20992;-69
2022/02/13 08:25:30;;;;;;;36.23;16.73;;;;;;;0.50;78.38;101122.43;1695645;82;21041;-69
2022/02/13 08:27:57;;;;;;;37.13;15.75;;;;;;;0.46;78.35;101118.75;1696725;83;21162;-69
2022/02/13 08:30:23;;;;;;;27.60;14.58;;;;;;;0.54;78.36;101115.69;1702137;83;21078;-69
2022/02/13 08:32:49;;;;;;;23.25;12.78;;;;;;;0.63;78.32;101114.71;1686970;83;21018;-69
2022/02/13 08:35:15;;;;;;;34.70;14.47;;;;;;;0.73;78.28;101113.70;1682965;85;20903;-69
2022/02/13 08:37:41;;;;;;;28.07;13.13;;;;;;;0.71;78.20;101111.16;1683114;85;21042;-69
2022/02/13 08:40:08;;;;;;;21.65;12.55;;;;;;;0.70;78.12;101109.95;1682661;85;21098;-69
2022/02/13 08:42:34;;;;;;;32.50;15.32;;;;;;;0.65;78.09;101109.36;1686773;83;20995;-68
2022/02/13 08:45:00;;;;;;;35.43;16.87;;;;;;;0.61;78.02;101107.84;1682987;85;20895;-69
2022/02/13 08:47:26;;;;;;;43.28;22.02;;;;;;;0.63;77.99;101105.53;1690160;83;21530;-69
2022/02/13 08:49:52;;;;;;;44.88;21.27;;;;;;;0.66;77.97;101100.55;1631151;87;21493;-69
2022/02/13 08:52:18;;;;;;;62.53;25.92;;;;;;;0.66;77.95;101097.93;1650846;85;21914;-69
2022/02/13 08:54:47;;;;;;;44.10;19.20;;;;;;;0.74;77.92;101095.71;1711428;83;21007;-69
2022/02/13 08:57:13;;;;;;;43.80;18.82;;;;;;;0.80;77.87;101100.59;1721816;82;21050;-69
2022/02/13 08:59:40;;;;;;;40.48;18.95;;;;;;;0.95;77.91;101094.44;1705689;84;21045;-69
2022/02/13 09:02:06;;;;;;;35.98;16.42;;;;;;;1.15;77.90;101092.77;1711539;82;21006;-69
2022/02/13 09:04:32;;;;;;;31.42;15.72;;;;;;;1.28;77.83;101090.22;1739672;82;21147;-69
2022/02/13 09:07:00;;;;;;;38.42;19.05;;;;;;;1.39;77.79;101088.63;1711336;83;20991;-69
2022/02/13 09:09:27;;;;;;;51.70;25.05;;;;;;;1.52;77.72;101084.77;1711271;83;21008;-68
2022/02/13 09:11:54;;;;;;;56.63;26.30;;;;;;;1.64;77.71;101085.79;1708820;83;20988;-69
2022/02/13 09:14:20;;;;;;;51.63;24.07;;;;;;;1.75;77.66;101081.55;1703996;83;21000;-69
2022/02/13 09:16:46;;;;;;;48.25;24.25;;;;;;;1.90;77.60;101075.30;1699846;84;21190;-70
2022/02/13 09:19:12;;;;;;;59.85;32.70;;;;;;;2.01;77.57;101061.45;1680779;84;20892;-69
2022/02/13 09:21:38;;;;;;;80.75;35.33;;;;;;;2.04;77.49;101056.02;1704167;82;21027;-69
2022/02/13 09:24:05;;;;;;;81.55;39.75;;;;;;;2.11;77.43;101054.65;1703863;84;20982;-70
2022/02/13 09:26:31;;;;;;;63.33;35.83;;;;;;;2.22;77.35;101057.42;1703194;84;21039;-69
2022/02/13 09:28:59;;;;;;;65.55;26.30;;;;;;;2.31;77.28;101063.89;1703888;83;21131;-69
2022/02/13 09:31:25;;;;;;;63.90;26.93;;;;;;;2.39;77.21;101057.16;1703928;84;21007;-69
2022/02/13 09:33:51;;;;;;;47.20;21.12;;;;;;;2.49;77.12;101055.62;1697862;84;20992;-70
2022/02/13 09:36:19;;;;;;;42.13;17.92;;;;;;;2.53;77.03;101053.63;1676013;84;21035;-70
2022/02/13 09:38:47;;;;;;;35.90;15.95;;;;;;;2.58;76.90;101058.56;1704076;84;21539;-70
2022/02/13 09:41:18;;;;;;;69.00;25.75;;;;;;;2.61;76.80;101051.77;1694864;84;21182;-70
2022/02/13 09:43:44;;;;;;;67.80;27.22;;;;;;;2.67;76.65;101055.34;1675513;85;21010;-70
2022/02/13 09:46:15;;;;;;;61.28;26.27;;;;;;;2.69;76.54;101044.21;1675835;84;21015;-70
2022/02/13 09:48:42;;;;;;;51.50;23.30;;;;;;;2.76;76.42;101038.90;1675488;84;21038;-70
2022/02/13 09:51:07;;;;;;;57.70;25.12;;;;;;;2.85;76.32;101036.97;1675722;85;21066;-70
2022/02/13 09:53:34;;;;;;;59.48;22.45;;;;;;;2.90;76.18;101028.27;1648965;85;21199;-70
2022/02/13 09:56:02;;;;;;;45.05;18.52;;;;;;;2.98;76.07;101029.91;1675693;85;21031;-70
2022/02/13 09:58:30;;;;;;;56.23;20.52;;;;;;;3.08;75.96;101028.31;1676193;84;21015;-70
2022/02/13 10:01:08;;;;;;;37.65;16.80;;;;;;;3.17;75.85;101018.44;1675707;85;21062;-70
2022/02/13 10:03:38;;;;;;;31.55;13.70;;;;;;;3.23;75.72;101024.61;1679539;84;21046;-70
2022/02/13 10:06:19;;;;;;;40.63;16.95;;;;;;;3.28;75.62;101022.48;1710218;82;21317;-70
2022/02/13 10:08:51;;;;;;;51.33;19.52;;;;;;;3.31;75.52;101028.84;1674338;84;21130;-70
2022/02/13 10:11:29;;;;;;;27.85;12.50;;;;;;;3.35;75.37;101017.14;1705746;82;21004;-70
2022/02/13 10:14:05;;;;;;;42.48;17.30;;;;;;;3.45;75.22;101018.17;1690775;83;21037;-70
2022/02/13 10:16:36;;;;;;;39.67;17.05;;;;;;;3.56;75.09;101019.19;1703449;83;21520;-70
2022/02/13 10:19:05;;;;;;;123.40;63.28;;;;;;;3.68;74.99;101011.73;1704010;84;21661;-70
2022/02/13 10:21:53;;;;;;;726.52;451.40;;;;;;;3.81;74.88;101009.41;1701802;82;20987;-70
2022/02/13 10:24:34;;;;;;;208.00;133.03;;;;;;;3.91;74.77;100997.70;1711905;82;21055;-70
2022/02/13 10:27:15;;;;;;;47.30;25.80;;;;;;;4.01;74.67;100992.95;1681693;84;21035;-70
2022/02/13 10:29:46;;;;;;;37.65;19.82;;;;;;;4.07;74.52;100991.67;1717204;81;21465;-70
2022/02/13 10:32:27;;;;;;;750.98;341.70;;;;;;;4.10;74.35;100983.99;1676463;84;21328;-70
2022/02/13 10:35:13;;;;;;;528.30;233.02;;;;;;;4.08;74.17;100980.64;1724092;82;21070;-70
2022/02/13 10:37:55;;;;;;;107.15;59.40;;;;;;;4.07;73.93;100983.75;1676904;83;21038;-70
2022/02/13 10:40:23;;;;;;;178.90;147.57;;;;;;;4.08;73.74;100984.59;1712099;82;21476;-71
2022/02/13 10:43:04;;;;;;;87.25;64.35;;;;;;;4.11;73.60;100990.49;1706272;82;21050;-72
2022/02/13 10:45:31;;;;;;;204.50;103.02;;;;;;;4.13;73.44;100976.69;1724869;82;21519;-73
2022/02/13 10:48:00;;;;;;;29.72;17.87;;;;;;;4.13;73.29;100972.73;1695209;84;21051;-71
2022/02/13 10:50:28;;;;;;;26.25;12.85;;;;;;;4.14;73.15;100978.38;1702245;82;21007;-71
2022/02/13 10:53:02;;;;;;;27.60;15.28;;;;;;;4.20;73.01;100981.02;1714042;82;21050;-71
2022/02/13 10:55:26;;;;;;;26.70;12.70;;;;;;;4.25;72.87;100974.46;1705053;82;21106;-71
2022/02/13 10:57:54;;;;;;;19.40;10.38;;;;;;;4.27;72.74;100969.89;1703353;82;21050;-71
2022/02/13 11:00:20;;;;;;;17.48;9.83;;;;;;;4.34;72.60;100967.16;1702518;82;21479;-71
2022/02/13 11:02:47;;;;;;;15.25;8.28;;;;;;;4.41;72.43;100967.05;1718321;82;21431;-71
2022/02/13 11:05:13;;;;;;;22.30;11.35;;;;;;;4.48;72.25;100960.34;1689772;84;20963;-71
2022/02/13 11:07:48;;;;;;;21.75;12.05;;;;;;;4.54;72.12;100953.27;1677574;84;21072;-71
2022/02/13 11:10:26;;;;;;;26.97;14.23;;;;;;;4.64;72.00;100953.90;1677636;84;21480;-71
2022/02/13 11:12:54;;;;;;;20.55;10.48;;;;;;;4.72;71.91;100951.48;1690429;83;21469;-71